createdAt,value
2022-12-06T00:02:06.855Z,60.45
2022-12-06T00:04:41.187Z,60.37
2022-12-06T00:07:13.315Z,60.19
2022-12-06T00:09:45.540Z,60.19
2022-12-06T00:12:17.424Z,60.24
2022-12-06T00:14:49.392Z,60.42
2022-12-06T00:17:22.886Z,60.40
2022-12-06T00:19:55.109Z,60.48
2022-12-06T00:22:28.550Z,60.28
2022-12-06T00:25:00.527Z,60.04
2022-12-06T00:27:36.264Z,60.05
2022-12-06T00:30:12.591Z,60.40
2022-12-06T00:32:45.433Z,60.48
2022-12-06T00:35:18.494Z,60.42
2022-12-06T00:37:52.105Z,60.43
2022-12-06T00:40:24.339Z,60.53
2022-12-06T00:42:58.304Z,60.77
2022-12-06T00:45:30.347Z,60.89
2022-12-06T00:48:03.155Z,60.89
2022-12-06T00:50:36.675Z,61.02
2022-12-06T00:53:09.022Z,61.02
2022-12-06T00:55:41.959Z,61.10
2022-12-06T00:58:14.729Z,60.84
2022-12-06T01:00:50.142Z,60.53
2022-12-06T01:03:23.402Z,60.86
2022-12-06T01:05:55.515Z,60.98
2022-12-06T01:08:27.568Z,60.97
2022-12-06T01:11:03.387Z,61.22
2022-12-06T01:13:35.627Z,61.27
2022-12-06T01:16:15.301Z,61.28
2022-12-06T01:18:52.831Z,61.19
2022-12-06T01:21:26.276Z,61.29
2022-12-06T01:23:59.929Z,61.38
2022-12-06T01:26:36.129Z,61.44
2022-12-06T01:29:08.948Z,61.43
2022-12-06T01:31:42.926Z,60.97
2022-12-06T01:34:18.474Z,60.67
2022-12-06T01:36:52.672Z,61.17
2022-12-06T01:39:24.917Z,61.13
2022-12-06T01:41:58.672Z,61.50
2022-12-06T01:44:45.664Z,61.82
2022-12-06T01:47:20.300Z,61.97
2022-12-06T01:49:57.597Z,61.70
2022-12-06T01:52:32.877Z,61.68
2022-12-06T01:55:06.388Z,62.04
2022-12-06T01:57:41.505Z,61.86
2022-12-06T02:00:15.776Z,61.76
2022-12-06T02:02:49.881Z,62.00
2022-12-06T02:05:23.573Z,62.26
2022-12-06T02:07:57.322Z,61.96
2022-12-06T02:10:29.645Z,62.11
2022-12-06T02:13:04.481Z,62.12
2022-12-06T02:15:45.084Z,62.52
2022-12-06T02:18:26.102Z,62.54
2022-12-06T02:21:06.597Z,62.49
2022-12-06T02:24:06.686Z,62.31
2022-12-06T02:26:42.097Z,62.06
2022-12-06T02:29:47.726Z,62.03
2022-12-06T02:32:21.463Z,62.30
2022-12-06T02:34:58.972Z,62.49
2022-12-06T02:37:37.354Z,62.39
2022-12-06T02:40:17.842Z,62.19
2022-12-06T02:42:53.056Z,62.11
2022-12-06T02:45:30.402Z,62.46
2022-12-06T02:48:04.779Z,62.28
2022-12-06T02:50:39.785Z,62.32
2022-12-06T02:53:15.560Z,62.24
2022-12-06T02:55:48.070Z,62.23
2022-12-06T02:58:21.768Z,62.15
2022-12-06T03:00:56.416Z,62.12
2022-12-06T03:03:50.740Z,62.14
2022-12-06T03:06:50.544Z,62.27
2022-12-06T03:09:29.484Z,62.21
2022-12-06T03:12:07.638Z,62.42
2022-12-06T03:14:46.589Z,62.21
2022-12-06T03:17:28.240Z,62.11
2022-12-06T03:20:05.413Z,62.04
2022-12-06T03:22:42.510Z,62.23
2022-12-06T03:25:15.708Z,62.26
2022-12-06T03:27:48.149Z,62.25
2022-12-06T03:30:20.760Z,62.37
2022-12-06T03:32:53.518Z,62.40
2022-12-06T03:35:30.233Z,62.38
2022-12-06T03:38:16.341Z,62.49
2022-12-06T03:48:15.968Z,62.25
2022-12-06T03:50:58.513Z,62.39
2022-12-06T03:53:32.379Z,62.21
2022-12-06T03:56:06.676Z,62.29
2022-12-06T03:58:38.691Z,62.21
2022-12-06T04:01:12.709Z,62.27
2022-12-06T04:03:45.236Z,62.31
2022-12-06T04:06:19.262Z,62.38
2022-12-06T04:08:52.232Z,62.31
2022-12-06T04:11:24.821Z,62.20
2022-12-06T04:13:56.795Z,62.35
2022-12-06T04:16:46.643Z,62.28
2022-12-06T04:19:22.583Z,62.18
2022-12-06T04:22:14.717Z,62.34
2022-12-06T04:24:47.790Z,62.29
2022-12-06T04:27:38.436Z,62.21
2022-12-06T04:30:32.646Z,62.11
2022-12-06T04:33:22.652Z,62.43
2022-12-06T04:36:16.557Z,62.54
2022-12-06T04:38:52.981Z,62.83
2022-12-06T04:41:46.444Z,62.68
2022-12-06T04:44:19.703Z,62.68
2022-12-06T04:46:54.046Z,62.63
2022-12-06T04:49:28.223Z,62.69
2022-12-06T04:52:00.262Z,62.76
2022-12-06T04:54:34.322Z,63.21
2022-12-06T04:57:11.267Z,62.75
2022-12-06T04:59:47.182Z,62.66
2022-12-06T05:02:20.418Z,63.02
2022-12-06T05:04:52.782Z,62.71
2022-12-06T05:07:26.541Z,62.70
2022-12-06T05:10:01.007Z,62.85
2022-12-06T05:12:35.575Z,62.92
2022-12-06T05:15:09.867Z,62.95
2022-12-06T05:17:42.122Z,62.84
2022-12-06T05:20:15.413Z,62.78
2022-12-06T05:22:47.944Z,63.28
2022-12-06T05:25:20.952Z,63.46
2022-12-06T05:27:56.980Z,63.90
2022-12-06T05:30:30.201Z,64.16
2022-12-06T05:33:03.486Z,64.36
2022-12-06T05:35:36.345Z,64.32
2022-12-06T05:38:08.679Z,64.27
2022-12-06T05:40:42.101Z,64.44
2022-12-06T05:43:15.158Z,63.96
2022-12-06T05:45:47.528Z,63.84
2022-12-06T05:48:21.649Z,63.63
2022-12-06T05:50:54.704Z,63.80
2022-12-06T05:53:30.364Z,63.82
2022-12-06T05:56:09.493Z,63.77
2022-12-06T05:58:42.783Z,63.85
2022-12-06T06:01:17.205Z,64.17
2022-12-06T06:03:51.391Z,64.14
2022-12-06T06:06:24.745Z,63.83
2022-12-06T06:08:57.288Z,64.07
2022-12-06T06:11:31.510Z,64.00
2022-12-06T06:14:07.075Z,64.23
2022-12-06T06:16:40.269Z,63.97
2022-12-06T06:19:13.693Z,64.18
2022-12-06T06:21:46.396Z,64.26
2022-12-06T06:24:19.545Z,64.31
2022-12-06T06:26:54.486Z,64.04
2022-12-06T06:29:26.996Z,63.68
2022-12-06T06:31:59.305Z,63.62
2022-12-06T06:34:32.255Z,63.75
2022-12-06T06:37:07.860Z,63.53
2022-12-06T06:39:41.436Z,63.86
2022-12-06T06:42:14.638Z,64.29
2022-12-06T06:44:47.940Z,64.40
2022-12-06T06:47:20.232Z,64.64
2022-12-06T06:49:56.835Z,64.36
2022-12-06T06:52:30.331Z,64.21
2022-12-06T06:55:03.886Z,63.97
2022-12-06T06:57:36.719Z,64.06
2022-12-06T07:00:12.527Z,64.26
2022-12-06T07:02:44.755Z,64.55
2022-12-06T07:05:17.927Z,64.78
2022-12-06T07:07:50.098Z,64.64
2022-12-06T07:10:27.354Z,64.66
2022-12-06T07:12:59.420Z,64.68
2022-12-06T07:15:35.848Z,64.75
2022-12-06T07:18:08.782Z,64.88
2022-12-06T07:20:42.671Z,64.79
2022-12-06T07:23:18.604Z,64.79
2022-12-06T07:26:02.494Z,64.35
2022-12-06T07:28:37.953Z,64.42
2022-12-06T07:31:15.287Z,64.33
2022-12-06T07:33:49.447Z,64.50
2022-12-06T07:36:28.012Z,64.35
2022-12-06T07:39:03.794Z,64.27
2022-12-06T07:41:54.450Z,64.44
2022-12-06T07:44:46.019Z,64.60
2022-12-06T07:47:18.226Z,64.25
2022-12-06T07:49:50.429Z,64.25
2022-12-06T07:52:25.975Z,64.07
2022-12-06T07:55:00.967Z,64.00
2022-12-06T07:57:36.264Z,64.03
2022-12-06T08:00:16.578Z,64.17
2022-12-06T08:02:49.679Z,64.31
2022-12-06T08:05:23.612Z,64.28
2022-12-06T08:07:57.682Z,64.23
2022-12-06T08:10:29.873Z,64.34
2022-12-06T08:13:05.098Z,64.52
2022-12-06T08:15:37.518Z,64.74
2022-12-06T08:18:10.849Z,64.73
2022-12-06T08:20:45.694Z,64.56
2022-12-06T08:23:18.499Z,64.19
2022-12-06T08:25:57.834Z,64.46
2022-12-06T08:28:31.399Z,64.35
2022-12-06T08:31:11.439Z,64.53
2022-12-06T08:33:44.789Z,64.56
2022-12-06T08:36:19.352Z,64.57
2022-12-06T08:38:52.965Z,64.48
2022-12-06T08:41:45.585Z,64.35
2022-12-06T08:44:19.300Z,64.30
2022-12-06T08:46:54.206Z,64.50
2022-12-06T08:49:27.177Z,64.52
2022-12-06T08:52:02.684Z,64.84
2022-12-06T08:54:36.881Z,64.58
2022-12-06T08:57:09.502Z,64.65
2022-12-06T08:59:42.544Z,64.47
2022-12-06T09:02:15.834Z,64.61
2022-12-06T09:04:51.498Z,64.55
2022-12-06T09:07:26.597Z,64.67
2022-12-06T09:09:58.967Z,64.44
2022-12-06T09:12:34.049Z,64.30
2022-12-06T09:15:10.260Z,64.18
2022-12-06T09:17:42.630Z,64.30
2022-12-06T09:20:20.825Z,64.41
2022-12-06T09:22:53.506Z,64.29
2022-12-06T09:25:28.134Z,64.32
2022-12-06T09:28:03.197Z,64.40
2022-12-06T09:30:36.853Z,64.03
2022-12-06T09:33:12.725Z,63.95
2022-12-06T09:35:45.212Z,64.11
2022-12-06T09:38:17.567Z,64.15
2022-12-06T09:41:00.453Z,63.92
2022-12-06T09:43:46.817Z,63.84
2022-12-06T09:46:30.002Z,63.94
2022-12-06T09:49:22.907Z,63.79
2022-12-06T09:52:13.048Z,63.98
2022-12-06T09:55:01.016Z,64.16
2022-12-06T09:57:41.537Z,64.68
2022-12-06T10:00:22.361Z,64.45
2022-12-06T10:03:23.116Z,64.49
2022-12-06T10:06:03.229Z,64.44
2022-12-06T10:09:03.373Z,64.44
2022-12-06T10:11:58.523Z,64.38
2022-12-06T10:14:41.392Z,64.44
2022-12-06T10:17:19.388Z,64.43
2022-12-06T10:20:00.111Z,64.45
2022-12-06T10:22:44.130Z,64.32
2022-12-06T10:25:20.914Z,64.28
2022-12-06T10:28:04.224Z,64.50
2022-12-06T10:30:38.544Z,64.48
2022-12-06T10:33:18.321Z,64.31
2022-12-06T10:35:54.961Z,64.21
2022-12-06T10:38:33.458Z,64.23
2022-12-06T10:41:16.665Z,64.14
2022-12-06T10:43:53.630Z,64.32
2022-12-06T10:46:47.913Z,64.39
2022-12-06T10:49:26.257Z,64.27
2022-12-06T10:52:02.527Z,64.16
2022-12-06T10:54:42.259Z,64.21
2022-12-06T10:57:19.318Z,64.12
2022-12-06T11:00:03.043Z,64.04
2022-12-06T11:02:43.462Z,64.01
2022-12-06T11:05:23.266Z,64.25
2022-12-06T11:08:00.542Z,64.47
2022-12-06T11:10:35.568Z,64.18
2022-12-06T11:13:19.581Z,64.36
2022-12-06T11:15:56.700Z,64.59
2022-12-06T11:18:32.233Z,64.53
2022-12-06T11:21:12.152Z,64.51
2022-12-06T11:23:49.578Z,64.75
2022-12-06T11:26:30.583Z,64.58
2022-12-06T11:29:08.060Z,64.31
2022-12-06T11:31:44.619Z,64.15
2022-12-06T11:34:21.673Z,64.22
2022-12-06T11:37:00.119Z,64.50
2022-12-06T11:39:36.612Z,64.46
2022-12-06T11:42:11.697Z,64.71
2022-12-06T11:45:01.520Z,64.59
2022-12-06T11:47:35.984Z,64.34
2022-12-06T11:50:17.391Z,64.58
2022-12-06T11:52:55.008Z,64.71
2022-12-06T11:55:29.585Z,64.69
2022-12-06T11:58:05.205Z,64.83
2022-12-06T12:00:38.084Z,64.74
2022-12-06T12:03:31.937Z,64.78
2022-12-06T12:06:22.749Z,64.81
2022-12-06T12:09:00.645Z,64.79
2022-12-06T12:11:40.245Z,64.91
2022-12-06T12:14:18.874Z,64.99
2022-12-06T12:16:54.460Z,64.78
2022-12-06T12:19:34.001Z,64.72
2022-12-06T12:22:23.754Z,64.79
2022-12-06T12:27:51.900Z,66.60
2022-12-06T12:30:36.791Z,66.71
2022-12-06T12:33:22.962Z,66.56
2022-12-06T12:35:58.502Z,66.58
2022-12-06T12:38:36.529Z,67.16
2022-12-06T12:41:26.152Z,67.42
2022-12-06T12:46:59.299Z,67.59
2022-12-06T12:49:35.284Z,67.08
2022-12-06T12:52:31.838Z,66.84
2022-12-06T12:55:15.775Z,66.64
2022-12-06T12:57:49.627Z,66.48
2022-12-06T13:00:24.324Z,66.40
2022-12-06T13:03:00.498Z,66.01
2022-12-06T13:05:45.037Z,66.05
2022-12-06T13:08:25.304Z,66.05
2022-12-06T13:11:03.106Z,65.93
2022-12-06T13:13:39.703Z,65.69
2022-12-06T13:16:16.559Z,65.80
2022-12-06T13:18:51.873Z,65.74
2022-12-06T13:21:26.197Z,65.56
2022-12-06T13:24:04.850Z,65.67
2022-12-06T13:26:39.945Z,65.49
2022-12-06T13:29:23.866Z,65.66
2022-12-06T13:31:57.551Z,65.64
2022-12-06T13:34:37.580Z,65.36
2022-12-06T13:37:34.440Z,65.41
2022-12-06T13:40:11.466Z,65.02
2022-12-06T13:42:48.533Z,64.92
2022-12-06T13:45:47.353Z,64.76
2022-12-06T13:48:39.137Z,64.67
2022-12-06T13:51:48.869Z,64.54
2022-12-06T13:54:35.081Z,64.75
2022-12-06T13:57:30.257Z,64.82
2022-12-06T14:00:06.990Z,64.75
2022-12-06T14:02:50.886Z,64.65
2022-12-06T14:06:07.712Z,64.45
2022-12-06T14:08:50.354Z,64.64
2022-12-06T14:11:25.824Z,64.77
2022-12-06T14:14:09.218Z,64.80
2022-12-06T14:16:44.145Z,64.84
2022-12-06T14:19:19.713Z,64.92
2022-12-06T14:21:57.070Z,64.90
2022-12-06T14:24:32.702Z,64.71
2022-12-06T14:27:12.621Z,64.78
2022-12-06T14:30:01.665Z,64.68
2022-12-06T14:32:40.449Z,64.56
2022-12-06T14:35:17.905Z,64.66
2022-12-06T14:37:52.157Z,64.54
2022-12-06T14:40:50.802Z,64.49
2022-12-06T14:43:27.206Z,64.43
2022-12-06T14:46:03.060Z,64.52
2022-12-06T14:48:51.313Z,64.31
2022-12-06T14:51:28.300Z,64.16
2022-12-06T14:54:19.880Z,64.52
2022-12-06T14:56:52.322Z,64.41
2022-12-06T15:00:10.850Z,64.47
2022-12-06T15:02:26.508Z,64.48
2022-12-06T15:05:02.401Z,64.64
2022-12-06T15:07:42.263Z,64.71
2022-12-06T15:10:30.224Z,64.52
2022-12-06T15:13:18.418Z,64.52
2022-12-06T15:15:54.639Z,64.62
2022-12-06T15:18:33.895Z,64.51
2022-12-06T15:21:14.305Z,64.47
2022-12-06T15:23:52.272Z,64.33
2022-12-06T15:26:26.266Z,64.07
2022-12-06T15:29:00.403Z,64.31
2022-12-06T15:31:37.983Z,64.47
2022-12-06T15:34:28.038Z,64.32
2022-12-06T15:37:37.090Z,64.16
2022-12-06T15:39:56.673Z,64.06
2022-12-06T15:42:29.962Z,64.36
2022-12-06T15:45:04.691Z,64.33
2022-12-06T15:47:40.095Z,64.27
2022-12-06T15:50:16.425Z,64.20
2022-12-06T15:52:48.571Z,64.21
2022-12-06T15:55:22.154Z,64.10
2022-12-06T15:57:56.419Z,63.85
2022-12-06T16:00:32.983Z,63.94
2022-12-06T16:03:09.726Z,64.02
2022-12-06T16:05:42.378Z,63.87
2022-12-06T16:08:16.045Z,63.82
2022-12-06T16:11:11.490Z,64.11
2022-12-06T16:13:41.752Z,64.05
2022-12-06T16:16:18.408Z,64.16
2022-12-06T16:18:51.635Z,64.05
2022-12-06T16:21:27.037Z,64.01
2022-12-06T16:24:13.962Z,64.05
2022-12-06T16:26:47.954Z,64.05
2022-12-06T16:29:25.696Z,64.20
2022-12-06T16:32:00.353Z,64.06
2022-12-06T16:34:34.413Z,64.32
2022-12-06T16:37:10.891Z,64.31
2022-12-06T16:39:44.749Z,64.26
2022-12-06T16:42:16.662Z,64.17
2022-12-06T16:44:54.062Z,64.03
2022-12-06T16:49:58.800Z,64.06
2022-12-06T16:52:33.266Z,64.10
2022-12-06T16:55:07.625Z,64.21
2022-12-06T16:57:41.373Z,64.33
2022-12-06T17:00:16.572Z,64.12
2022-12-06T17:02:51.177Z,64.27
2022-12-06T17:05:26.452Z,63.93
2022-12-06T17:08:00.193Z,63.99
2022-12-06T17:10:35.437Z,64.02
2022-12-06T17:13:10.160Z,63.87
2022-12-06T17:15:43.005Z,63.66
2022-12-06T17:18:17.248Z,63.69
2022-12-06T17:20:49.602Z,63.94
2022-12-06T17:23:24.674Z,63.93
2022-12-06T17:26:00.472Z,64.10
2022-12-06T17:28:37.000Z,63.97
2022-12-06T17:31:12.124Z,63.90
2022-12-06T17:33:45.576Z,63.96
2022-12-06T17:36:24.948Z,63.80
2022-12-06T17:38:59.608Z,63.64
2022-12-06T17:41:52.410Z,63.81
2022-12-06T17:44:31.924Z,63.71
2022-12-06T17:47:04.528Z,63.64
2022-12-06T17:49:39.284Z,63.53
2022-12-06T17:52:13.021Z,63.57
2022-12-06T17:54:45.485Z,63.68
2022-12-06T17:57:21.118Z,63.73
2022-12-06T17:59:57.759Z,63.47
2022-12-06T18:02:32.099Z,63.51
2022-12-06T18:05:06.282Z,63.68
2022-12-06T18:07:38.682Z,63.37
2022-12-06T18:10:16.131Z,63.41
2022-12-06T18:12:48.113Z,63.27
2022-12-06T18:15:38.675Z,63.19
2022-12-06T18:18:14.206Z,63.30
2022-12-06T18:20:47.386Z,63.09
2022-12-06T18:23:21.875Z,63.26
2022-12-06T18:25:55.177Z,63.18
2022-12-06T18:28:28.136Z,63.19
2022-12-06T18:31:05.314Z,62.82
2022-12-06T18:33:41.706Z,62.98
2022-12-06T18:36:16.460Z,63.06
2022-12-06T18:38:51.510Z,63.22
2022-12-06T18:41:25.648Z,63.35
2022-12-06T18:44:00.532Z,63.29
2022-12-06T18:46:33.460Z,62.76
2022-12-06T18:49:05.912Z,63.02
2022-12-06T18:51:40.869Z,63.03
2022-12-06T18:54:17.600Z,63.31
2022-12-06T18:56:51.014Z,63.38
2022-12-06T18:59:27.827Z,63.38
2022-12-06T19:02:00.705Z,63.31
2022-12-06T19:04:33.475Z,63.20
2022-12-06T19:07:11.792Z,63.45
2022-12-06T19:09:48.721Z,63.50
2022-12-06T19:12:22.362Z,63.49
2022-12-06T19:14:55.517Z,63.69
2022-12-06T19:17:28.108Z,63.59
2022-12-06T19:20:00.841Z,63.54
2022-12-06T19:22:35.129Z,63.53
2022-12-06T19:25:09.297Z,63.49
2022-12-06T19:27:44.789Z,63.32
2022-12-06T19:30:18.194Z,63.44
2022-12-06T19:32:51.268Z,63.61
2022-12-06T19:35:24.016Z,63.65
2022-12-06T19:37:57.655Z,63.73
2022-12-06T19:40:31.789Z,63.69
2022-12-06T19:43:28.718Z,63.71
2022-12-06T19:46:11.464Z,63.77
2022-12-06T19:48:44.723Z,63.75
2022-12-06T19:51:21.828Z,63.62
2022-12-06T19:53:54.422Z,63.82
2022-12-06T19:56:27.674Z,63.72
2022-12-06T19:59:04.673Z,63.77
2022-12-06T20:01:37.653Z,63.78
2022-12-06T20:04:11.687Z,63.81
2022-12-06T20:06:45.669Z,63.97
2022-12-06T20:09:19.243Z,63.89
2022-12-06T20:12:04.850Z,63.62
2022-12-06T20:14:40.732Z,63.92
2022-12-06T20:17:15.319Z,63.92
2022-12-06T20:19:52.616Z,63.99
2022-12-06T20:22:26.989Z,64.17
2022-12-06T20:25:01.187Z,64.18
2022-12-06T20:27:54.433Z,63.94
2022-12-06T20:30:26.524Z,64.09
2022-12-06T20:32:58.529Z,64.07
2022-12-06T20:35:34.788Z,64.10
2022-12-06T20:38:08.186Z,64.01
2022-12-06T20:40:40.581Z,64.09
2022-12-06T20:43:13.273Z,64.14
2022-12-06T20:45:46.045Z,64.24
2022-12-06T20:48:18.613Z,64.25
2022-12-06T20:50:50.946Z,64.26
2022-12-06T20:53:25.454Z,64.21
2022-12-06T20:55:58.607Z,64.22
2022-12-06T20:58:31.069Z,64.11
2022-12-06T21:01:04.316Z,64.23
2022-12-06T21:03:38.788Z,64.26
2022-12-06T21:06:12.889Z,64.40
2022-12-06T21:08:45.572Z,64.26
2022-12-06T21:11:23.276Z,64.26
2022-12-06T21:13:57.682Z,64.20
2022-12-06T21:16:33.305Z,64.31
2022-12-06T21:19:07.034Z,64.26
2022-12-06T21:21:43.994Z,64.34
2022-12-06T21:24:20.108Z,64.38
2022-12-06T21:26:52.919Z,64.21
2022-12-06T21:29:30.914Z,64.14
2022-12-06T21:32:04.186Z,64.17
2022-12-06T21:34:44.503Z,64.21
2022-12-06T21:37:19.658Z,64.13
2022-12-06T21:39:52.012Z,64.06
2022-12-06T21:42:29.113Z,64.08
2022-12-06T21:45:02.347Z,64.18
2022-12-06T21:47:35.769Z,64.17
2022-12-06T21:50:10.612Z,64.33
2022-12-06T21:52:44.856Z,64.27
2022-12-06T21:55:17.916Z,64.10
2022-12-06T21:57:50.893Z,64.21
2022-12-06T22:00:23.968Z,64.44
2022-12-06T22:02:58.433Z,64.58
2022-12-06T22:05:31.126Z,64.26
2022-12-06T22:08:03.620Z,64.33
2022-12-06T22:10:43.353Z,64.37
2022-12-06T22:13:16.539Z,64.35
2022-12-06T22:15:48.463Z,64.44
2022-12-06T22:18:23.886Z,64.48
2022-12-06T22:21:05.261Z,64.46
2022-12-06T22:23:38.378Z,64.45
2022-12-06T22:26:14.204Z,64.30
2022-12-06T22:28:48.439Z,64.20
2022-12-06T22:31:24.975Z,64.27
2022-12-06T22:34:00.621Z,64.29
2022-12-06T22:36:37.561Z,64.32
2022-12-06T22:39:09.466Z,64.38
2022-12-06T22:41:43.880Z,64.11
2022-12-06T22:44:15.751Z,64.18
2022-12-06T22:46:48.671Z,64.18
2022-12-06T22:49:20.796Z,64.20
2022-12-06T22:51:54.701Z,64.14
2022-12-06T22:54:29.774Z,64.11
2022-12-06T22:57:05.152Z,64.32
2022-12-06T22:59:39.121Z,64.32
2022-12-06T23:02:12.493Z,64.51
2022-12-06T23:04:47.404Z,64.50
2022-12-06T23:07:20.904Z,64.50
2022-12-06T23:09:55.772Z,64.31
2022-12-06T23:12:28.118Z,64.48
2022-12-06T23:15:00.512Z,64.36
2022-12-06T23:17:34.938Z,64.45
2022-12-06T23:20:10.038Z,64.51
2022-12-06T23:22:42.538Z,64.39
2022-12-06T23:25:14.949Z,64.54
2022-12-06T23:27:49.840Z,64.27
2022-12-06T23:30:24.001Z,64.32
2022-12-06T23:32:58.111Z,64.29
2022-12-06T23:35:30.762Z,64.49
2022-12-06T23:38:03.688Z,64.42
2022-12-06T23:40:36.495Z,64.40
2022-12-06T23:43:09.020Z,64.25
2022-12-06T23:45:41.163Z,64.31
2022-12-06T23:48:13.514Z,64.32
2022-12-06T23:50:46.202Z,64.30
2022-12-06T23:53:19.180Z,64.23
2022-12-06T23:55:51.579Z,64.21
2022-12-06T23:58:24.305Z,64.32
